Time;durP1;ratioP1;P1;durP2;ratioP2;P2;SDS_P1;SDS_P2;PMS_P1;PMS_P2;Temp;Humidity;BMP_temperature;BMP_pressure;BME280_temperature;BME280_humidity;BME280_pressure;Samples;Min_cycle;Max_cycle;Signal;HPM_P1;HPM_P2
2022/03/11 00:02:19;;;;;;;;;;;;;;;0.08;43.78;102293.73;1694848;83;20683;-82
2022/03/11 00:04:46;;;;;;;;;;;;;;;0.12;43.70;102287.58;1696263;84;20158;-83
2022/03/11 00:07:11;;;;;;;;;;;;;;;0.01;43.59;102290.88;1693357;84;20182;-83
2022/03/11 00:09:37;;;;;;;;;;;;;;;0.01;43.62;102289.59;1693131;83;21076;-83
2022/03/11 00:12:04;;;;;;;;;;;;;;;-0.07;43.76;102288.00;1699288;83;20368;-83
2022/03/11 00:14:29;;;;;;;;;;;;;;;0.17;43.20;102293.52;1693641;84;20122;-84
2022/03/11 00:16:55;;;;;;;;;;;;;;;0.17;42.99;102294.39;1695574;84;20165;-82
2022/03/11 00:19:21;;;;;;;;;;;;;;;0.22;42.98;102289.09;1697270;83;20162;-82
2022/03/11 00:21:46;;;;;;;;;;;;;;;0.32;42.91;102283.22;1696003;84;21179;-83
2022/03/11 00:24:12;;;;;;;;;;;;;;;0.30;42.89;102281.95;1695729;84;20293;-84
2022/03/11 00:26:38;;;;;;;;;;;;;;;0.40;42.86;102281.73;1695778;84;20500;-84
2022/03/11 00:29:03;;;;;;;;;;;;;;;0.45;42.75;102285.94;1694277;83;20404;-83
2022/03/11 00:31:29;;;;;;;;;;;;;;;0.39;42.78;102284.78;1694457;83;20206;-84
2022/03/11 00:33:55;;;;;;;;;;;;;;;0.49;42.68;102282.80;1695256;83;21191;-83
2022/03/11 00:36:21;;;;;;;;;;;;;;;0.50;42.60;102276.72;1696748;84;20229;-82
2022/03/11 00:38:46;;;;;;;;;;;;;;;0.56;42.41;102282.19;1695333;84;20223;-82
2022/03/11 00:41:14;;;;;;;;;;;;;;;0.60;42.20;102279.48;1695132;83;20229;-82
2022/03/11 00:43:39;;;;;;;;;;;;;;;0.60;42.11;102276.88;1695432;83;20163;-82
2022/03/11 00:46:05;;;;;;;;;;;;;;;0.58;42.01;102272.17;1697931;83;21205;-82
2022/03/11 00:48:30;;;;;;;;;;;;;;;0.57;41.93;102278.25;1691170;84;20989;-82
2022/03/11 00:50:58;;;;;;;;;;;;;;;0.43;42.02;102284.25;1698170;83;20157;-84
2022/03/11 00:53:24;;;;;;;;;;;;;;;0.31;42.46;102281.07;1715243;82;20175;-82
2022/03/11 00:55:50;;;;;;;;;;;;;;;0.17;42.82;102289.62;1728473;82;20203;-82
2022/03/11 00:58:16;;;;;;;;;;;;;;;0.31;42.68;102294.06;1730313;82;22331;-82
2022/03/11 01:00:42;;;;;;;;;;;;;;;0.19;43.09;102293.06;1730832;81;20176;-83
2022/03/11 01:03:07;;;;;;;;;;;;;;;0.11;43.21;102285.86;1728411;82;20461;-83
2022/03/11 01:05:33;;;;;;;;;;;;;;;0.14;43.21;102290.98;1729730;82;20212;-83
2022/03/11 01:07:59;;;;;;;;;;;;;;;0.02;43.52;102295.16;1731606;82;20461;-83
2022/03/11 01:10:24;;;;;;;;;;;;;;;0.18;43.20;102296.53;1725398;82;21079;-82
2022/03/11 01:12:50;;;;;;;;;;;;;;;0.15;43.41;102292.70;1734697;81;20163;-83
2022/03/11 01:15:15;;;;;;;;;;;;;;;0.14;43.37;102292.29;1724351;81;20616;-83
2022/03/11 01:17:41;;;;;;;;;;;;;;;0.12;43.55;102288.42;1723599;82;20179;-82
2022/03/11 01:20:07;;;;;;;;;;;;;;;0.12;43.55;102294.92;1728780;82;20426;-82
2022/03/11 01:22:33;;;;;;;;;;;;;;;-0.03;43.88;102289.66;1731067;81;21084;-82
2022/03/11 01:24:58;;;;;;;;;;;;;;;0.12;43.57;102287.58;1724787;82;20214;-82
2022/03/11 01:27:24;;;;;;;;;;;;;;;0.12;43.64;102288.88;1722565;82;20131;-82
2022/03/11 01:29:49;;;;;;;;;;;;;;;0.09;43.71;102282.45;1723420;82;20135;-82
2022/03/11 01:32:15;;;;;;;;;;;;;;;0.12;43.49;102282.39;1727059;82;20159;-82
2022/03/11 01:34:41;;;;;;;;;;;;;;;-0.02;43.67;102279.69;1729859;82;21138;-82
2022/03/11 01:37:06;;;;;;;;;;;;;;;-0.37;44.28;102280.01;1727342;82;20486;-81
2022/03/11 01:39:32;;;;;;;;;;;;;;;-0.64;44.99;102281.42;1730314;82;20447;-82
2022/03/11 01:41:58;;;;;;;;;;;;;;;-0.70;45.33;102282.84;1730216;82;20316;-81
2022/03/11 01:44:25;;;;;;;;;;;;;;;-0.83;45.80;102282.25;1730201;82;20167;-81
2022/03/11 01:46:51;;;;;;;;;;;;;;;-0.85;45.93;102292.26;1726585;82;21175;-82
2022/03/11 01:49:16;;;;;;;;;;;;;;;-0.97;46.31;102300.66;1726971;82;20242;-82
2022/03/11 01:51:42;;;;;;;;;;;;;;;-1.01;46.61;102302.05;1726931;81;20461;-82
2022/03/11 01:54:08;;;;;;;;;;;;;;;-1.05;46.67;102306.89;1711925;82;20407;-82
2022/03/11 01:56:33;;;;;;;;;;;;;;;-1.14;46.92;102310.05;1715593;82;20211;-82
2022/03/11 01:58:59;;;;;;;;;;;;;;;-1.14;47.34;102316.98;1713512;83;21172;-82
2022/03/11 02:01:25;;;;;;;;;;;;;;;-1.16;47.29;102303.19;1710784;83;20354;-82
2022/03/11 02:03:50;;;;;;;;;;;;;;;-1.11;47.47;102306.09;1709981;83;20144;-82
2022/03/11 02:06:16;;;;;;;;;;;;;;;-1.11;47.40;102301.36;1713427;83;20339;-81
2022/03/11 02:08:42;;;;;;;;;;;;;;;-1.01;46.96;102300.33;1715689;82;20112;-82
2022/03/11 02:11:07;;;;;;;;;;;;;;;-0.92;46.82;102304.47;1713162;83;21104;-82
2022/03/11 02:13:48;;;;;;;;;;;;;;;-0.98;47.07;102301.56;1711869;83;20313;-82
2022/03/11 02:16:19;;;;;;;;;;;;;;;-0.92;46.97;102302.75;1712281;82;20161;-81
2022/03/11 02:18:45;;;;;;;;;;;;;;;-1.01;46.99;102308.11;1711737;83;20467;-83
2022/03/11 02:21:11;;;;;;;;;;;;;;;-1.06;47.13;102314.25;1711916;83;20262;-82
2022/03/11 02:23:45;;;;;;;;;;;;;;;-1.04;47.04;102308.58;1712331;82;21052;-82
2022/03/11 02:26:12;;;;;;;;;;;;;;;-1.11;47.22;102312.58;1713516;82;20144;-81
2022/03/11 02:28:37;;;;;;;;;;;;;;;-1.10;47.30;102311.70;1712512;82;20208;-81
2022/03/11 02:31:03;;;;;;;;;;;;;;;-1.04;47.08;102307.28;1712414;83;20128;-82
2022/03/11 02:33:28;;;;;;;;;;;;;;;-0.97;47.18;102305.00;1709585;83;20751;-81
2022/03/11 02:35:54;;;;;;;;;;;;;;;-1.05;47.42;102310.78;1711063;83;21971;-81
2022/03/11 02:38:20;;;;;;;;;;;;;;;-1.05;47.33;102309.03;1711291;83;20183;-81
2022/03/11 02:40:45;;;;;;;;;;;;;;;-1.12;47.53;102313.48;1713272;83;20148;-81
2022/03/11 02:43:11;;;;;;;;;;;;;;;-1.14;47.63;102312.63;1714412;83;20410;-81
2022/03/11 02:45:36;;;;;;;;;;;;;;;-1.14;47.63;102306.60;1711294;83;21284;-81
2022/03/11 02:48:02;;;;;;;;;;;;;;;-1.07;47.49;102304.75;1713208;82;21972;-81
2022/03/11 02:50:28;;;;;;;;;;;;;;;-1.31;47.96;102309.48;1711474;82;20183;-81
2022/03/11 02:52:53;;;;;;;;;;;;;;;-1.42;48.28;102308.83;1714108;82;20174;-81
2022/03/11 02:55:19;;;;;;;;;;;;;;;-1.47;48.43;102311.48;1727776;82;20296;-81
2022/03/11 02:57:44;;;;;;;;;;;;;;;-1.32;47.96;102309.06;1729111;82;20160;-81
2022/03/11 03:00:11;;;;;;;;;;;;;;;-1.39;48.16;102312.21;1728735;81;21096;-81
2022/03/11 03:02:36;;;;;;;;;;;;;;;-1.90;49.22;102318.17;1720267;82;20235;-81
2022/03/11 03:05:02;;;;;;;;;;;;;;;-1.79;49.15;102318.47;1726575;82;20163;-81
2022/03/11 03:07:28;;;;;;;;;;;;;;;-1.75;49.02;102321.44;1726084;82;20187;-81
2022/03/11 03:09:53;;;;;;;;;;;;;;;-2.02;49.38;102320.52;1730672;82;20443;-82
2022/03/11 03:12:19;;;;;;;;;;;;;;;-1.90;49.13;102315.59;1726601;82;22245;-80
2022/03/11 03:14:45;;;;;;;;;;;;;;;-1.99;49.36;102315.72;1724854;81;20168;-81
2022/03/11 03:17:10;;;;;;;;;;;;;;;-1.82;48.96;102317.64;1727474;81;20168;-82
2022/03/11 03:19:36;;;;;;;;;;;;;;;-1.86;49.01;102317.27;1727855;81;20139;-82
2022/03/11 03:22:03;;;;;;;;;;;;;;;-1.95;49.27;102323.87;1725907;81;20155;-81
2022/03/11 03:24:29;;;;;;;;;;;;;;;-2.02;49.63;102324.82;1724543;82;21161;-82
2022/03/11 03:26:55;;;;;;;;;;;;;;;-1.97;49.57;102316.58;1727627;82;20139;-81
2022/03/11 03:29:21;;;;;;;;;;;;;;;-1.86;49.25;102322.44;1728925;82;20131;-82
2022/03/11 03:31:47;;;;;;;;;;;;;;;-1.92;49.43;102321.23;1730205;82;20242;-81
2022/03/11 03:34:13;;;;;;;;;;;;;;;-1.94;49.31;102321.70;1726597;82;20147;-82
2022/03/11 03:36:38;;;;;;;;;;;;;;;-2.21;49.96;102318.59;1722384;82;21070;-81
2022/03/11 03:39:04;;;;;;;;;;;;;;;-2.34;50.51;102319.66;1725313;82;20222;-82
2022/03/11 03:41:29;;;;;;;;;;;;;;;-2.36;50.64;102316.23;1728254;82;20139;-82
2022/03/11 03:43:55;;;;;;;;;;;;;;;-2.30;50.60;102317.45;1726570;82;20465;-82
2022/03/11 03:46:20;;;;;;;;;;;;;;;-2.33;50.61;102321.37;1728553;82;20163;-81
2022/03/11 03:48:46;;;;;;;;;;;;;;;-2.30;50.60;102310.98;1729333;82;21138;-81
2022/03/11 03:51:12;;;;;;;;;;;;;;;-2.26;50.57;102317.81;1728678;82;20123;-80
2022/03/11 03:53:37;;;;;;;;;;;;;;;-2.28;50.74;102315.69;1724355;81;20251;-83
2022/03/11 03:56:03;;;;;;;;;;;;;;;-2.22;50.46;102319.50;1721421;82;20465;-83
2022/03/11 03:58:29;;;;;;;;;;;;;;;-2.21;50.44;102316.01;1721465;83;20294;-83
2022/03/11 04:00:55;;;;;;;;;;;;;;;-2.27;50.47;102317.41;1718594;82;21090;-83
2022/03/11 04:03:21;;;;;;;;;;;;;;;-2.26;50.60;102317.81;1721782;82;20481;-83
2022/03/11 04:05:46;;;;;;;;;;;;;;;-2.25;50.43;102318.66;1718695;82;20245;-83
2022/03/11 04:08:12;;;;;;;;;;;;;;;-2.21;50.32;102310.83;1720263;83;20606;-83
2022/03/11 04:10:39;;;;;;;;;;;;;;;-1.92;49.67;102314.77;1721216;82;20156;-83
2022/03/11 04:13:04;;;;;;;;;;;;;;;-1.87;49.52;102312.95;1719328;83;21072;-84
2022/03/11 04:15:30;;;;;;;;;;;;;;;-1.73;49.14;102315.34;1719541;83;20732;-83
2022/03/11 04:17:56;;;;;;;;;;;;;;;-1.88;49.51;102315.14;1721490;82;20955;-83
2022/03/11 04:20:21;;;;;;;;;;;;;;;-1.69;49.22;102316.16;1720004;82;20128;-83
2022/03/11 04:22:47;;;;;;;;;;;;;;;-1.79;49.23;102315.43;1719598;83;20172;-83
2022/03/11 04:25:13;;;;;;;;;;;;;;;-1.77;49.17;102315.41;1723365;83;21926;-83
2022/03/11 04:27:39;;;;;;;;;;;;;;;-1.62;48.80;102319.05;1722269;82;20212;-83
2022/03/11 04:30:05;;;;;;;;;;;;;;;-1.62;48.65;102313.88;1720467;81;20211;-82
2022/03/11 04:32:31;;;;;;;;;;;;;;;-1.58;48.59;102319.44;1723510;82;20184;-82
2022/03/11 04:34:57;;;;;;;;;;;;;;;-1.47;48.26;102318.81;1722111;82;20129;-82
2022/03/11 04:37:22;;;;;;;;;;;;;;;-1.43;48.06;102316.17;1722072;83;21272;-82
2022/03/11 04:39:48;;;;;;;;;;;;;;;-1.86;48.73;102318.55;1724393;82;20862;-82
2022/03/11 04:42:13;;;;;;;;;;;;;;;-1.82;48.80;102321.53;1718631;83;20184;-83
2022/03/11 04:44:39;;;;;;;;;;;;;;;-1.64;48.41;102314.34;1719307;82;20191;-82
2022/03/11 04:47:05;;;;;;;;;;;;;;;-1.58;48.24;102316.00;1723819;82;20144;-82
2022/03/11 04:49:30;;;;;;;;;;;;;;;-1.53;48.16;102320.20;1722351;83;21287;-82
2022/03/11 04:51:56;;;;;;;;;;;;;;;-1.47;48.06;102315.38;1721427;82;20793;-82
2022/03/11 04:54:22;;;;;;;;;;;;;;;-1.61;48.22;102307.83;1728723;81;20131;-83
2022/03/11 04:56:47;;;;;;;;;;;;;;;-1.74;48.31;102298.11;1725819;82;20770;-82
2022/03/11 04:59:13;;;;;;;;;;;;;;;-1.57;48.05;102311.21;1727147;82;20157;-83
2022/03/11 05:01:38;;;;;;;;;;;;;;;-1.60;48.00;102307.38;1725724;82;21175;-82
2022/03/11 05:04:04;;;;;;;;;;;;;;;-1.73;48.16;102304.97;1728175;82;20198;-82
2022/03/11 05:06:30;;;;;;;;;;;;;;;-1.64;48.16;102305.28;1725281;82;20265;-82
2022/03/11 05:08:55;;;;;;;;;;;;;;;-1.61;48.15;102302.64;1729257;82;20148;-82
2022/03/11 05:11:22;;;;;;;;;;;;;;;-1.54;47.94;102306.86;1724616;82;21253;-82
2022/03/11 05:13:47;;;;;;;;;;;;;;;-1.56;47.73;102300.83;1726086;82;21120;-82
2022/03/11 05:16:13;;;;;;;;;;;;;;;-1.66;47.87;102307.05;1726894;82;20142;-82
2022/03/11 05:18:38;;;;;;;;;;;;;;;-1.63;47.97;102307.00;1727794;82;20132;-80
2022/03/11 05:21:04;;;;;;;;;;;;;;;-1.58;47.90;102309.07;1730660;81;20753;-82
2022/03/11 05:23:29;;;;;;;;;;;;;;;-1.57;47.87;102306.03;1728024;81;20128;-82
2022/03/11 05:25:55;;;;;;;;;;;;;;;-1.55;47.91;102310.32;1727776;82;21178;-82
2022/03/11 05:28:21;;;;;;;;;;;;;;;-1.66;47.91;102304.02;1727234;82;20171;-82
2022/03/11 05:30:46;;;;;;;;;;;;;;;-1.68;48.20;102317.44;1728580;81;20501;-82
2022/03/11 05:33:12;;;;;;;;;;;;;;;-1.92;48.77;102317.35;1728450;82;20704;-82
2022/03/11 05:35:37;;;;;;;;;;;;;;;-2.07;49.24;102309.80;1728970;82;20148;-81
2022/03/11 05:38:03;;;;;;;;;;;;;;;-2.10;49.31;102316.31;1729465;82;21813;-82
2022/03/11 05:40:29;;;;;;;;;;;;;;;-2.00;49.53;102321.80;1730118;82;20127;-81
2022/03/11 05:42:54;;;;;;;;;;;;;;;-1.74;49.07;102323.12;1728885;82;20183;-82
2022/03/11 05:45:20;;;;;;;;;;;;;;;-1.82;49.12;102317.64;1728093;82;20107;-83
2022/03/11 05:47:45;;;;;;;;;;;;;;;-1.74;49.11;102317.95;1725778;82;20163;-82
2022/03/11 05:50:11;;;;;;;;;;;;;;;-1.69;48.89;102322.64;1726599;82;21133;-82
2022/03/11 05:52:38;;;;;;;;;;;;;;;-1.67;48.80;102322.17;1726384;81;20253;-82
2022/03/11 05:55:04;;;;;;;;;;;;;;;-1.61;48.55;102331.14;1725637;81;20962;-82
2022/03/11 05:57:29;;;;;;;;;;;;;;;-1.71;48.73;102336.91;1732001;81;20196;-82
2022/03/11 05:59:55;;;;;;;;;;;;;;;-1.58;48.82;102333.69;1724905;82;20188;-82
2022/03/11 06:02:21;;;;;;;;;;;;;;;-1.35;48.52;102338.92;1727453;81;21153;-82
2022/03/11 06:04:47;;;;;;;;;;;;;;;-1.32;48.03;102345.34;1726305;82;20137;-82
2022/03/11 06:07:12;;;;;;;;;;;;;;;-1.21;47.82;102346.47;1728303;82;20190;-82
2022/03/11 06:09:38;;;;;;;;;;;;;;;-1.12;47.65;102347.19;1730783;82;20538;-81
2022/03/11 06:12:04;;;;;;;;;;;;;;;-0.96;47.49;102337.84;1728683;81;20184;-82
2022/03/11 06:14:30;;;;;;;;;;;;;;;-0.85;47.22;102344.13;1728488;82;21125;-82
2022/03/11 06:16:55;;;;;;;;;;;;;;;-0.73;46.88;102347.34;1729528;82;20643;-82
2022/03/11 06:19:22;;;;;;;;;;;;;;;-0.80;46.56;102317.20;1727521;82;20194;-81
2022/03/11 06:21:47;;;;;;;;;;;;;;;-0.55;46.33;102347.41;1730069;82;20131;-81
2022/03/11 06:24:13;;;;;;;;;;;;;;;-0.43;46.21;102338.54;1722850;82;20283;-82
2022/03/11 06:26:40;;;;;;;;;;;;;;;-0.48;46.11;102333.89;1730149;82;21085;-82
2022/03/11 06:29:06;;;;;;;;;;;;;;;-0.37;45.82;102341.02;1725787;81;20481;-82
2022/03/11 06:31:32;;;;;;;;;;;;;;;-0.30;45.75;102346.92;1726769;81;20119;-82
2022/03/11 06:33:59;;;;;;;;;;;;;;;-0.27;45.60;102353.80;1731185;82;20171;-82
2022/03/11 06:36:25;;;;;;;;;;;;;;;-0.26;45.65;102355.07;1726747;82;20172;-82
2022/03/11 06:38:50;;;;;;;;;;;;;;;-0.16;45.50;102356.18;1729921;82;21106;-81
2022/03/11 06:41:17;;;;;;;;;;;;;;;-0.05;45.11;102357.67;1728969;81;20224;-81
2022/03/11 06:43:42;;;;;;;;;;;;;;;-0.10;45.18;102355.59;1728311;81;20177;-83
2022/03/11 06:46:08;;;;;;;;;;;;;;;-0.04;45.07;102355.47;1728741;82;20520;-82
2022/03/11 06:48:35;;;;;;;;;;;;;;;0.08;44.71;102360.84;1730978;82;20131;-83
2022/03/11 06:51:04;;;;;;;;;;;;;;;0.17;44.89;102353.27;1731918;82;21175;-83
2022/03/11 06:53:28;;;;;;;;;;;;;;;0.25;44.49;102353.09;1725789;81;20138;-83
2022/03/11 06:55:53;;;;;;;;;;;;;;;0.17;44.20;102358.47;1728352;81;20147;-84
2022/03/11 06:58:19;;;;;;;;;;;;;;;0.31;44.08;102365.53;1729484;81;20171;-83
2022/03/11 07:00:44;;;;;;;;;;;;;;;0.46;43.59;102360.86;1728411;82;21396;-80
2022/03/11 07:03:10;;;;;;;;;;;;;;;0.47;43.37;102357.38;1729269;82;21782;-81
2022/03/11 07:05:36;;;;;;;;;;;;;;;0.40;43.20;102363.60;1729147;82;20242;-82
2022/03/11 07:08:02;;;;;;;;;;;;;;;0.44;43.15;102363.95;1726961;82;20114;-81
2022/03/11 07:10:28;;;;;;;;;;;;;;;0.46;43.24;102364.76;1724822;82;20210;-83
2022/03/11 07:12:53;;;;;;;;;;;;;;;0.61;43.21;102359.20;1727801;82;20175;-81
2022/03/11 07:15:19;;;;;;;;;;;;;;;0.70;43.09;102364.17;1725741;82;21150;-82
2022/03/11 07:17:46;;;;;;;;;;;;;;;0.65;42.88;102362.56;1725640;81;20121;-85
2022/03/11 07:20:11;;;;;;;;;;;;;;;0.73;42.25;102360.66;1726047;81;20184;-84
2022/03/11 07:22:37;;;;;;;;;;;;;;;0.80;41.98;102363.94;1725988;81;20159;-84
2022/03/11 07:25:03;;;;;;;;;;;;;;;0.86;41.78;102363.79;1731552;81;20127;-84
2022/03/11 07:27:29;;;;;;;;;;;;;;;0.93;41.17;102365.32;1723694;81;21314;-84
2022/03/11 07:29:56;;;;;;;;;;;;;;;1.01;40.96;102355.59;1726025;81;20304;-82
2022/03/11 07:32:23;;;;;;;;;;;;;;;1.06;40.41;102361.98;1727152;82;20167;-85
2022/03/11 07:34:49;;;;;;;;;;;;;;;1.18;39.91;102356.88;1729137;81;20148;-85
2022/03/11 07:37:14;;;;;;;;;;;;;;;1.29;39.68;102356.17;1725902;82;20442;-87
2022/03/11 07:39:40;;;;;;;;;;;;;;;1.26;39.11;102351.05;1724471;81;21961;-85
2022/03/11 07:42:06;;;;;;;;;;;;;;;1.43;39.63;102355.34;1726342;82;20179;-86
2022/03/11 07:44:33;;;;;;;;;;;;;;;1.53;38.81;102357.22;1726372;81;20179;-85
2022/03/11 07:46:58;;;;;;;;;;;;;;;1.60;38.52;102361.80;1728051;82;20108;-86
2022/03/11 07:49:24;;;;;;;;;;;;;;;1.73;38.25;102360.56;1728008;82;20151;-89
2022/03/11 07:51:50;;;;;;;;;;;;;;;1.82;37.92;102362.48;1725266;82;22026;-88
2022/03/11 07:54:16;;;;;;;;;;;;;;;1.82;37.54;102363.36;1726733;82;20136;-89
2022/03/11 07:56:41;;;;;;;;;;;;;;;1.93;37.43;102369.56;1713851;82;20144;-88
2022/03/11 07:59:07;;;;;;;;;;;;;;;2.02;36.88;102365.38;1714801;83;20121;-89
2022/03/11 08:01:33;;;;;;;;;;;;;;;2.01;37.13;102364.12;1718588;83;20124;-87
2022/03/11 08:03:58;;;;;;;;;;;;;;;2.06;36.46;102363.06;1716287;82;21084;-87
2022/03/11 08:06:24;;;;;;;;;;;;;;;2.14;36.18;102363.70;1712182;83;20124;-89
2022/03/11 08:08:49;;;;;;;;;;;;;;;2.24;35.80;102367.34;1715578;83;20168;-89
2022/03/11 08:11:15;;;;;;;;;;;;;;;2.23;35.73;102367.77;1717511;83;20131;-88
2022/03/11 08:13:41;;;;;;;;;;;;;;;2.37;36.13;102362.13;1713519;82;20177;-89
2022/03/11 08:16:07;;;;;;;;;;;;;;;2.43;36.26;102359.33;1712152;82;21161;-89
2022/03/11 08:18:33;;;;;;;;;;;;;;;2.34;35.21;102360.91;1711033;82;20448;-89
2022/03/11 08:20:59;;;;;;;;;;;;;;;2.34;34.98;102359.61;1711285;82;20173;-90
2022/03/11 08:23:25;;;;;;;;;;;;;;;2.30;33.66;102352.78;1713576;83;20154;-87
2022/03/11 08:25:50;;;;;;;;;;;;;;;2.13;33.48;102354.17;1712698;83;20129;-87
2022/03/11 08:28:16;;;;;;;;;;;;;;;1.99;33.43;102348.53;1711615;83;21025;-88
2022/03/11 08:30:42;;;;;;;;;;;;;;;2.05;33.65;102347.05;1714420;83;20233;-87
2022/03/11 08:33:10;;;;;;;;;;;;;;;2.15;33.65;102348.91;1713503;83;20276;-87
2022/03/11 08:35:36;;;;;;;;;;;;;;;1.97;32.78;102350.31;1711943;83;20131;-89
2022/03/11 08:38:04;;;;;;;;;;;;;;;2.03;33.38;102356.64;1714196;83;20149;-85
2022/03/11 08:40:29;;;;;;;;;;;;;;;2.19;33.60;102357.48;1708908;82;20155;-84
2022/03/11 08:42:55;;;;;;;;;;;;;;;1.94;32.68;102352.58;1713810;83;20144;-88
2022/03/11 08:45:21;;;;;;;;;;;;;;;2.13;32.82;102348.96;1715548;83;20161;-88
2022/03/11 08:47:47;;;;;;;;;;;;;;;2.34;33.06;102355.23;1713980;83;20189;-87
2022/03/11 08:50:14;;;;;;;;;;;;;;;2.29;31.82;102346.72;1714080;83;20115;-85
2022/03/11 08:52:40;;;;;;;;;;;;;;;2.45;31.68;102349.69;1719001;82;21322;-84
2022/03/11 08:55:06;;;;;;;;;;;;;;;2.61;31.75;102354.41;1720291;81;20137;-84
2022/03/11 08:57:31;;;;;;;;;;;;;;;2.59;30.48;102353.61;1731022;82;20119;-85
2022/03/11 08:59:57;;;;;;;;;;;;;;;2.61;30.68;102352.67;1733739;81;20288;-82
2022/03/11 09:02:23;;;;;;;;;;;;;;;2.49;30.05;102353.91;1731486;81;20124;-84
2022/03/11 09:04:49;;;;;;;;;;;;;;;2.51;30.35;102353.40;1728424;82;21146;-88
2022/03/11 09:07:14;;;;;;;;;;;;;;;2.50;30.76;102353.02;1727435;81;20235;-88
2022/03/11 09:09:40;;;;;;;;;;;;;;;2.58;30.56;102350.59;1726502;82;20573;-89
2022/03/11 09:12:06;;;;;;;;;;;;;;;2.64;30.32;102349.97;1725590;82;20186;-90
2022/03/11 09:14:31;;;;;;;;;;;;;;;2.47;28.83;102346.59;1728942;82;20206;-87
2022/03/11 09:16:58;;;;;;;;;;;;;;;2.57;28.24;102345.00;1729754;82;22541;-90
2022/03/11 09:19:23;;;;;;;;;;;;;;;2.69;29.08;102341.98;1726867;82;20911;-90
2022/03/11 09:21:49;;;;;;;;;;;;;;;2.65;28.21;102340.38;1731065;82;20163;-87
2022/03/11 09:24:15;;;;;;;;;;;;;;;2.55;27.63;102341.56;1726149;81;20129;-86
2022/03/11 09:26:40;;;;;;;;;;;;;;;2.56;26.83;102336.30;1727571;81;20187;-85
2022/03/11 09:29:06;;;;;;;;;;;;;;;2.66;26.58;102339.48;1727630;81;21094;-87
2022/03/11 09:31:32;;;;;;;;;;;;;;;2.73;25.84;102335.74;1722619;81;20214;-87
2022/03/11 09:33:58;;;;;;;;;;;;;;;2.83;25.42;102331.94;1727439;82;20150;-85
2022/03/11 09:36:25;;;;;;;;;;;;;;;2.81;25.42;102333.75;1730085;81;20169;-87
2022/03/11 09:38:51;;;;;;;;;;;;;;;2.87;25.27;102332.23;1729097;82;20207;-83
2022/03/11 09:41:16;;;;;;;;;;;;;;;3.06;25.75;102334.19;1726914;82;21092;-85
2022/03/11 09:43:42;;;;;;;;;;;;;;;3.13;25.31;102330.47;1726209;82;20144;-85
2022/03/11 09:46:08;;;;;;;;;;;;;;;3.18;25.27;102332.45;1725957;82;20536;-85
2022/03/11 09:48:34;;;;;;;;;;;;;;;3.22;24.89;102326.22;1726629;82;20168;-85
2022/03/11 09:51:00;;;;;;;;;;;;;;;3.38;25.24;102328.29;1727961;82;20187;-88
2022/03/11 09:53:27;;;;;;;;;;;;;;;3.47;25.36;102326.65;1727595;82;21172;-94
2022/03/11 09:55:53;;;;;;;;;;;;;;;3.61;25.15;102334.44;1720973;81;20133;-85
2022/03/11 09:58:18;;;;;;;;;;;;;;;3.71;25.44;102330.55;1710173;82;20149;-87
2022/03/11 10:00:44;;;;;;;;;;;;;;;3.54;24.86;102324.66;1710757;83;20132;-85
2022/03/11 10:03:10;;;;;;;;;;;;;;;3.47;24.87;102325.80;1717049;83;20156;-86
2022/03/11 10:05:51;;;;;;;;;;;;;;;3.66;25.12;102320.28;1709084;83;21094;-88
2022/03/11 10:08:35;;;;;;;;;;;;;;;3.86;25.89;102323.44;1711504;83;21447;-86
2022/03/11 10:11:23;;;;;;;;;;;;;;;3.83;25.59;102318.33;1712908;83;20251;-86
2022/03/11 10:13:51;;;;;;;;;;;;;;;3.99;26.03;102321.66;1711914;83;20154;-85
2022/03/11 10:16:25;;;;;;;;;;;;;;;3.88;25.47;102322.08;1713872;82;20135;-84
2022/03/11 10:18:58;;;;;;;;;;;;;;;3.97;25.26;102319.11;1713506;82;22336;-84
2022/03/11 10:21:40;;;;;;;;;;;;;;;4.02;25.38;102309.78;1714107;83;20368;-86
2022/03/11 10:24:11;;;;;;;;;;;;;;;3.90;25.09;102311.97;1707782;82;20302;-86
2022/03/11 10:26:39;;;;;;;;;;;;;;;4.07;25.41;102313.05;1713304;83;20125;-87
2022/03/11 10:29:07;;;;;;;;;;;;;;;4.11;25.19;102314.64;1684500;83;37472;-87
2022/03/11 10:31:39;;;;;;;;;;;;;;;4.22;25.41;102311.14;1712051;83;21954;-84
2022/03/11 10:34:17;;;;;;;;;;;;;;;4.36;25.35;102307.13;1708491;81;20152;-83
2022/03/11 10:36:52;;;;;;;;;;;;;;;4.36;25.00;102304.52;1694970;83;20172;-84
2022/03/11 10:39:21;;;;;;;;;;;;;;;4.36;25.38;102305.35;1709868;83;20184;-85
2022/03/11 10:41:49;;;;;;;;;;;;;;;4.54;25.45;102299.84;1711189;83;20093;-85
2022/03/11 10:44:14;;;;;;;;;;;;;;;4.58;24.98;102300.08;1711848;83;20163;-86
2022/03/11 10:46:40;;;;;;;;;;;;;;;4.76;25.37;102291.08;1713333;83;20233;-86
2022/03/11 10:49:05;;;;;;;;;;;;;;;4.86;25.00;102285.83;1710404;83;20266;-86
2022/03/11 10:51:33;;;;;;;;;;;;;;;4.96;25.06;102288.92;1713370;83;20157;-86
2022/03/11 10:54:03;;;;;;;;;;;;;;;5.13;25.35;102286.87;1713762;82;20192;-87
2022/03/11 10:56:35;;;;;;;;;;;;;;;5.12;25.03;102285.16;1720356;81;21102;-85
2022/03/11 10:59:05;;;;;;;;;;;;;;;5.06;24.82;102280.19;1724757;82;20140;-84
2022/03/11 11:01:39;;;;;;;;;;;;;;;4.98;24.75;102277.44;1727580;82;20124;-84
2022/03/11 11:04:07;;;;;;;;;;;;;;;4.97;24.63;102281.00;1728503;82;20199;-86
2022/03/11 11:06:34;;;;;;;;;;;;;;;4.72;24.48;102281.17;1730598;82;20228;-84
2022/03/11 11:09:00;;;;;;;;;;;;;;;4.81;24.89;102278.17;1730633;82;21899;-84
2022/03/11 11:11:26;;;;;;;;;;;;;;;4.95;24.98;102281.50;1725272;82;20164;-87
2022/03/11 11:13:52;;;;;;;;;;;;;;;5.25;25.10;102276.28;1727771;82;20301;-86
2022/03/11 11:16:19;;;;;;;;;;;;;;;5.29;24.60;102279.16;1728724;82;20128;-88
2022/03/11 11:18:46;;;;;;;;;;;;;;;5.31;24.40;102274.23;1726492;82;20212;-87
2022/03/11 11:21:12;;;;;;;;;;;;;;;5.43;24.50;102282.47;1724428;82;21072;-87
2022/03/11 11:23:38;;;;;;;;;;;;;;;5.57;24.14;102276.12;1726140;82;20367;-86
2022/03/11 11:26:03;;;;;;;;;;;;;;;5.59;24.16;102276.89;1725185;82;20266;-87
2022/03/11 11:28:29;;;;;;;;;;;;;;;5.68;24.27;102266.45;1726761;82;20438;-86
2022/03/11 11:30:55;;;;;;;;;;;;;;;5.75;24.28;102273.96;1729579;82;20190;-86
2022/03/11 11:33:21;;;;;;;;;;;;;;;5.88;24.33;102260.27;1727397;81;21166;-84
2022/03/11 11:35:46;;;;;;;;;;;;;;;5.93;24.48;102260.89;1725181;81;20210;-86
2022/03/11 11:38:30;;;;;;;;;;;;;;;5.92;24.47;102260.52;1726259;81;20659;-89
2022/03/11 11:40:57;;;;;;;;;;;;;;;6.05;24.42;102265.58;1722799;81;21170;-82
2022/03/11 11:43:31;;;;;;;;;;;;;;;6.15;24.02;102261.19;1724562;81;20164;-87
2022/03/11 11:46:04;;;;;;;;;;;;;;;6.19;24.29;102260.13;1725596;82;21101;-85
2022/03/11 11:48:41;;;;;;;;;;;;;;;6.33;24.82;102258.98;1720733;82;21022;-87
2022/03/11 11:51:07;;;;;;;;;;;;;;;6.24;24.02;102252.88;1723522;81;20195;-87
2022/03/11 11:53:35;;;;;;;;;;;;;;;6.22;24.08;102246.86;1723584;81;21061;-84
2022/03/11 11:56:03;;;;;;;;;;;;;;;6.29;24.33;102242.98;1723310;81;20203;-84
2022/03/11 11:58:32;;;;;;;;;;;;;;;6.26;24.14;102243.14;1718787;81;22482;-84
2022/03/11 12:01:01;;;;;;;;;;;;;;;6.46;23.94;102235.14;1726296;81;20093;-84
2022/03/11 12:03:49;;;;;;;;;;;;;;;6.32;23.50;102229.72;1725454;82;20186;-86
2022/03/11 12:06:36;;;;;;;;;;;;;;;6.34;23.59;102236.20;1728565;82;20218;-88
2022/03/11 12:09:02;;;;;;;;;;;;;;;6.53;23.70;102221.23;1646197;85;20236;-85
2022/03/11 12:11:37;;;;;;;;;;;;;;;6.57;23.75;102220.59;1650882;85;21337;-85
2022/03/11 12:14:04;;;;;;;;;;;;;;;6.52;23.75;102223.94;1662552;82;20113;-87
2022/03/11 12:16:30;;;;;;;;;;;;;;;6.67;23.94;102223.14;1728827;81;20237;-89
2022/03/11 12:18:55;;;;;;;;;;;;;;;6.76;23.82;102212.64;1728671;81;20252;-89
2022/03/11 12:21:27;;;;;;;;;;;;;;;6.85;23.59;102209.97;1726896;82;20635;-88
2022/03/11 12:23:53;;;;;;;;;;;;;;;6.88;23.72;102209.81;1727613;82;20149;-88
2022/03/11 12:26:18;;;;;;;;;;;;;;;6.92;23.77;102206.11;1725996;82;20317;-89
2022/03/11 12:28:44;;;;;;;;;;;;;;;6.98;23.87;102196.59;1728344;82;20148;-85
2022/03/11 12:31:21;;;;;;;;;;;;;;;7.00;23.56;102198.66;1727120;81;20219;-88
2022/03/11 12:33:48;;;;;;;;;;;;;;;7.09;23.36;102199.47;1728528;82;20168;-83
2022/03/11 12:36:23;;;;;;;;;;;;;;;7.20;23.11;102188.38;1732557;82;22043;-82
2022/03/11 12:38:50;;;;;;;;;;;;;;;7.31;23.12;102187.80;1726382;82;20209;-88
2022/03/11 12:41:20;;;;;;;;;;;;;;;7.30;22.63;102188.72;1704313;82;20274;-89